createdAt,value
2022-10-26T00:02:24.089Z,13.48
2022-10-26T00:04:52.042Z,14.57
2022-10-26T00:07:19.979Z,15.55
2022-10-26T00:09:49.327Z,15.32
2022-10-26T00:12:17.265Z,17.63
2022-10-26T00:14:45.255Z,16.45
2022-10-26T00:17:13.172Z,13.90
2022-10-26T00:19:41.302Z,15.88
2022-10-26T00:22:09.325Z,21.70
2022-10-26T00:24:37.340Z,13.93
2022-10-26T00:27:06.570Z,15.40
2022-10-26T00:29:34.519Z,11.45
2022-10-26T00:32:02.824Z,14.18
2022-10-26T00:34:31.213Z,15.65
2022-10-26T00:36:59.941Z,15.05
2022-10-26T00:39:27.865Z,12.48
2022-10-26T00:41:55.853Z,11.45
2022-10-26T00:45:01.976Z,16.98
2022-10-26T00:47:37.054Z,14.13
2022-10-26T00:50:09.259Z,12.13
2022-10-26T00:52:38.471Z,18.13
2022-10-26T00:55:08.563Z,14.52
2022-10-26T00:57:38.656Z,15.57
2022-10-26T01:00:09.965Z,18.55
2022-10-26T01:02:38.068Z,16.10
2022-10-26T01:05:07.460Z,14.95
2022-10-26T01:07:35.878Z,13.32
2022-10-26T01:10:03.957Z,12.82
2022-10-26T01:12:32.132Z,13.07
2022-10-26T01:15:00.298Z,14.93
2022-10-26T01:17:42.136Z,17.50
2022-10-26T01:20:40.392Z,16.83
2022-10-26T01:23:17.164Z,14.32
2022-10-26T01:26:17.603Z,18.17
2022-10-26T01:29:08.145Z,17.55
2022-10-26T01:31:43.249Z,15.85
2022-10-26T01:34:17.791Z,18.42
2022-10-26T01:36:53.975Z,19.48
2022-10-26T01:39:28.396Z,21.02
2022-10-26T01:42:01.161Z,15.30
2022-10-26T01:44:33.729Z,14.48
2022-10-26T01:47:05.277Z,17.73
2022-10-26T01:49:37.963Z,16.52
2022-10-26T01:52:06.529Z,12.57
2022-10-26T01:57:13.878Z,14.40
2022-10-26T01:59:57.684Z,21.17
2022-10-26T02:05:34.176Z,14.95
2022-10-26T02:08:24.563Z,14.27
2022-10-26T02:11:11.205Z,15.25
2022-10-26T02:13:44.651Z,18.23
2022-10-26T02:16:21.891Z,16.10
2022-10-26T02:18:57.417Z,17.55
2022-10-26T02:21:32.551Z,16.80
2022-10-26T02:24:00.766Z,14.98
2022-10-26T02:26:31.360Z,13.63
2022-10-26T02:29:03.869Z,12.27
2022-10-26T02:31:33.826Z,14.68
2022-10-26T02:34:08.314Z,16.52
2022-10-26T02:36:40.011Z,15.40
2022-10-26T02:39:10.396Z,16.48
2022-10-26T02:41:40.597Z,14.50
2022-10-26T02:44:14.326Z,13.20
2022-10-26T02:46:43.596Z,16.73
2022-10-26T02:49:13.778Z,14.50
2022-10-26T02:54:26.387Z,17.25
2022-10-26T02:56:59.124Z,17.35
2022-10-26T02:59:31.722Z,15.77
2022-10-26T03:01:59.736Z,19.63
2022-10-26T03:04:34.422Z,12.98
2022-10-26T03:07:03.466Z,14.88
2022-10-26T03:09:31.444Z,13.07
2022-10-26T03:11:59.619Z,16.35
2022-10-26T03:14:27.751Z,14.60
2022-10-26T03:16:55.781Z,18.63
2022-10-26T03:19:23.961Z,18.23
2022-10-26T03:21:53.222Z,19.77
2022-10-26T03:24:21.073Z,16.42
2022-10-26T03:26:48.925Z,16.05
2022-10-26T03:29:16.943Z,21.55
2022-10-26T03:31:44.840Z,16.42
2022-10-26T03:34:13.962Z,18.25
2022-10-26T03:36:41.857Z,14.70
2022-10-26T03:39:11.186Z,23.20
2022-10-26T03:41:39.035Z,24.02
2022-10-26T03:44:06.969Z,15.43
2022-10-26T03:46:35.062Z,21.92
2022-10-26T03:49:02.955Z,15.77
2022-10-26T03:51:31.063Z,18.27
2022-10-26T03:53:58.973Z,17.60
2022-10-26T03:56:28.539Z,16.00
2022-10-26T03:58:56.482Z,17.42
2022-10-26T04:01:24.610Z,21.90
2022-10-26T04:03:52.528Z,17.42
2022-10-26T04:06:20.556Z,18.25
2022-10-26T04:08:48.511Z,18.58
2022-10-26T04:11:16.448Z,23.17
2022-10-26T04:13:45.736Z,18.02
2022-10-26T04:16:13.597Z,21.92
2022-10-26T04:18:41.476Z,20.27
2022-10-26T04:21:09.309Z,20.33
2022-10-26T04:23:37.159Z,30.00
2022-10-26T04:26:06.649Z,20.25
2022-10-26T04:28:35.251Z,19.23
2022-10-26T04:31:04.656Z,22.55
2022-10-26T04:33:33.031Z,16.63
2022-10-26T04:36:02.069Z,20.67
2022-10-26T04:38:30.221Z,20.00
2022-10-26T04:40:58.321Z,21.45
2022-10-26T04:43:26.410Z,21.92
2022-10-26T04:45:57.432Z,17.75
2022-10-26T04:48:27.018Z,18.20
2022-10-26T04:50:54.974Z,25.95
2022-10-26T04:53:22.829Z,19.20
2022-10-26T04:55:50.670Z,20.88
2022-10-26T04:58:18.517Z,26.45
2022-10-26T05:00:46.456Z,20.42
2022-10-26T05:03:14.309Z,22.48
2022-10-26T05:05:43.769Z,22.48
2022-10-26T05:08:11.675Z,23.65
2022-10-26T05:10:39.598Z,23.58
2022-10-26T05:13:07.674Z,21.60
2022-10-26T05:15:35.690Z,24.83
2022-10-26T05:18:06.534Z,28.27
2022-10-26T05:20:36.173Z,21.75
2022-10-26T05:23:07.414Z,22.48
2022-10-26T05:25:37.859Z,22.50
2022-10-26T05:28:08.073Z,27.45
2022-10-26T05:30:36.515Z,25.75
2022-10-26T05:33:04.424Z,23.08
2022-10-26T05:35:33.884Z,20.98
2022-10-26T05:38:09.740Z,21.27
2022-10-26T05:40:38.146Z,19.52
2022-10-26T05:43:06.194Z,26.00
2022-10-26T05:45:34.048Z,27.45
2022-10-26T05:48:03.042Z,26.80
2022-10-26T05:50:31.540Z,24.70
2022-10-26T05:52:59.629Z,26.27
2022-10-26T05:55:29.707Z,21.17
2022-10-26T05:57:58.129Z,21.88
2022-10-26T06:00:28.664Z,28.48
2022-10-26T06:03:08.763Z,20.13
2022-10-26T06:05:39.893Z,26.08
2022-10-26T06:08:11.417Z,26.80
2022-10-26T06:10:41.669Z,22.88
2022-10-26T06:13:10.062Z,23.30
2022-10-26T06:15:48.166Z,21.33
2022-10-26T06:18:26.829Z,29.65
2022-10-26T06:21:11.258Z,25.50
2022-10-26T06:23:49.898Z,24.27
2022-10-26T06:26:31.228Z,25.73
2022-10-26T06:29:11.235Z,23.80
2022-10-26T06:31:39.212Z,21.55
2022-10-26T06:34:07.211Z,23.85
2022-10-26T06:36:36.107Z,18.92
2022-10-26T06:39:07.968Z,18.65
2022-10-26T06:41:38.142Z,26.75
2022-10-26T06:44:07.112Z,18.77
2022-10-26T06:46:42.774Z,21.10
2022-10-26T06:49:21.077Z,26.20
2022-10-26T06:51:54.622Z,20.00
2022-10-26T06:56:55.758Z,22.90
2022-10-26T06:59:33.890Z,21.75
2022-10-26T07:02:05.597Z,23.50
2022-10-26T07:04:34.834Z,21.25
2022-10-26T07:07:03.042Z,23.42
2022-10-26T07:09:31.135Z,23.70
2022-10-26T07:12:00.819Z,18.63
2022-10-26T07:14:28.767Z,21.58
2022-10-26T07:16:57.040Z,17.92
2022-10-26T07:19:25.153Z,22.55
2022-10-26T07:21:56.617Z,19.65
2022-10-26T07:24:24.624Z,20.45
2022-10-26T07:26:54.621Z,16.70
2022-10-26T07:29:24.377Z,20.08
2022-10-26T07:34:22.023Z,20.83
2022-10-26T07:36:51.695Z,21.83
2022-10-26T07:39:22.140Z,21.42
2022-10-26T07:41:50.345Z,21.40
2022-10-26T07:44:18.291Z,17.80
2022-10-26T07:46:47.475Z,21.77
2022-10-26T07:49:19.144Z,18.17
2022-10-26T07:51:47.602Z,30.10
2022-10-26T07:54:15.538Z,20.08
2022-10-26T07:56:43.441Z,19.10
2022-10-26T07:59:13.126Z,19.27
2022-10-26T08:01:41.334Z,15.00
2022-10-26T08:04:10.913Z,16.63
2022-10-26T08:06:38.976Z,17.98
2022-10-26T08:09:07.171Z,13.10
2022-10-26T08:11:37.031Z,16.38
2022-10-26T08:14:05.869Z,18.13
2022-10-26T08:16:34.905Z,11.88
2022-10-26T08:19:02.952Z,14.50
2022-10-26T08:21:39.551Z,12.25
2022-10-26T08:24:08.666Z,22.00
2022-10-26T08:26:36.748Z,19.25
2022-10-26T08:29:04.829Z,20.05
2022-10-26T08:31:32.735Z,17.15
2022-10-26T08:34:01.815Z,17.58
2022-10-26T08:36:30.092Z,17.75
2022-10-26T08:41:37.946Z,17.45
2022-10-26T08:44:21.679Z,11.75
2022-10-26T08:46:54.493Z,22.17
2022-10-26T08:49:26.256Z,10.50
2022-10-26T08:51:58.938Z,21.60
2022-10-26T08:54:37.283Z,14.50
2022-10-26T08:57:15.809Z,19.38
2022-10-26T08:59:50.287Z,10.63
2022-10-26T09:02:18.986Z,14.48
2022-10-26T09:04:47.158Z,22.15
2022-10-26T09:07:27.246Z,17.10
2022-10-26T09:10:05.421Z,13.55
2022-10-26T09:12:47.211Z,12.25
2022-10-26T09:15:23.805Z,11.98
2022-10-26T09:17:59.144Z,10.13
2022-10-26T09:20:49.071Z,10.50
2022-10-26T09:23:30.372Z,7.95
2022-10-26T09:26:02.436Z,16.58
2022-10-26T09:28:36.635Z,7.22
2022-10-26T09:31:05.852Z,11.90
2022-10-26T09:33:38.863Z,11.57
2022-10-26T09:36:11.982Z,12.70
2022-10-26T09:38:47.769Z,6.93
2022-10-26T09:41:26.101Z,5.47
2022-10-26T09:44:02.796Z,9.70
2022-10-26T09:46:35.775Z,11.20
2022-10-26T09:49:07.752Z,9.30
2022-10-26T09:51:38.040Z,12.27
2022-10-26T09:54:14.809Z,15.40
2022-10-26T09:56:45.889Z,9.43
2022-10-26T09:59:15.792Z,11.20
2022-10-26T10:01:43.901Z,6.78
2022-10-26T10:04:20.203Z,11.18
2022-10-26T10:06:49.473Z,12.50
2022-10-26T10:09:19.315Z,5.55
2022-10-26T10:11:55.360Z,8.43
2022-10-26T10:14:25.319Z,9.05
2022-10-26T10:16:56.144Z,8.50
2022-10-26T10:19:27.935Z,6.85
2022-10-26T10:21:58.721Z,9.38
2022-10-26T10:24:29.259Z,6.90
2022-10-26T10:27:01.275Z,7.80
2022-10-26T10:29:31.053Z,8.95
2022-10-26T10:32:01.026Z,9.32
2022-10-26T10:34:31.924Z,9.48
2022-10-26T10:37:01.862Z,15.65
2022-10-26T10:39:39.654Z,11.30
2022-10-26T10:42:19.659Z,8.27
2022-10-26T10:44:52.292Z,13.25
2022-10-26T10:47:24.063Z,12.83
2022-10-26T10:49:55.722Z,6.25
2022-10-26T10:52:27.403Z,13.30
2022-10-26T10:55:08.940Z,19.55
2022-10-26T10:57:52.507Z,9.90
2022-10-26T11:00:25.673Z,7.80
2022-10-26T11:03:16.714Z,8.98
2022-10-26T11:05:55.521Z,10.45
2022-10-26T11:08:30.117Z,7.90
2022-10-26T11:11:02.891Z,9.55
2022-10-26T11:13:38.355Z,13.20
2022-10-26T11:16:13.592Z,8.48
2022-10-26T11:18:45.588Z,8.25
2022-10-26T11:21:24.274Z,9.85
2022-10-26T11:24:01.764Z,8.82
2022-10-26T11:26:34.961Z,9.90
2022-10-26T11:29:08.523Z,5.07
2022-10-26T11:31:41.388Z,8.15
2022-10-26T11:34:20.795Z,8.95
2022-10-26T11:36:55.058Z,7.82
2022-10-26T11:39:32.972Z,4.72
2022-10-26T11:42:05.425Z,5.70
2022-10-26T11:44:41.025Z,9.52
2022-10-26T11:47:15.984Z,9.32
2022-10-26T11:49:49.215Z,11.95
2022-10-26T11:52:23.747Z,7.55
2022-10-26T11:54:55.750Z,10.82
2022-10-26T11:57:25.009Z,8.02
2022-10-26T11:59:57.062Z,10.23
2022-10-26T12:02:26.972Z,12.38
2022-10-26T12:05:00.166Z,7.68
2022-10-26T12:07:32.471Z,8.73
2022-10-26T12:10:02.674Z,7.65
2022-10-26T12:12:39.397Z,7.63
2022-10-26T12:15:24.833Z,10.38
2022-10-26T12:18:07.342Z,9.68
2022-10-26T12:21:02.846Z,9.27
2022-10-26T12:26:39.930Z,5.15
2022-10-26T12:29:29.367Z,10.57
2022-10-26T12:32:00.535Z,9.40
2022-10-26T12:34:58.713Z,7.07
2022-10-26T12:37:36.933Z,14.65
2022-10-26T12:40:43.829Z,7.03
2022-10-26T12:43:37.856Z,14.77
2022-10-26T12:49:45.842Z,13.25
2022-10-26T12:52:29.066Z,11.68
2022-10-26T12:55:41.533Z,12.63
2022-10-26T12:58:46.777Z,7.75
2022-10-26T13:04:38.846Z,16.83
2022-10-26T13:07:29.036Z,9.98
2022-10-26T13:10:02.386Z,11.57
2022-10-26T13:12:39.705Z,14.00
2022-10-26T13:15:21.625Z,14.20
2022-10-26T13:18:08.968Z,9.07
2022-10-26T13:20:52.357Z,11.93
2022-10-26T13:23:26.778Z,12.55
2022-10-26T13:26:12.058Z,7.50
2022-10-26T13:28:51.982Z,13.73
2022-10-26T13:31:57.018Z,12.88
2022-10-26T13:34:28.637Z,8.48
2022-10-26T13:37:17.072Z,10.27
2022-10-26T13:39:47.601Z,16.88
2022-10-26T13:42:19.298Z,15.48
2022-10-26T13:44:53.782Z,14.45
2022-10-26T13:47:28.322Z,16.50
2022-10-26T13:50:05.182Z,11.80
2022-10-26T13:52:38.079Z,17.15
2022-10-26T13:55:11.147Z,15.30
2022-10-26T13:57:43.893Z,13.90
2022-10-26T14:00:20.351Z,11.23
2022-10-26T14:02:48.777Z,14.90
2022-10-26T14:05:19.594Z,15.27
2022-10-26T14:07:55.865Z,14.05
2022-10-26T14:10:28.930Z,12.48
2022-10-26T14:12:57.203Z,12.55
2022-10-26T14:15:27.934Z,11.52
2022-10-26T14:17:56.935Z,14.48
2022-10-26T14:20:27.371Z,18.15
2022-10-26T14:22:57.009Z,16.35
2022-10-26T14:25:36.220Z,15.55
2022-10-26T14:28:22.898Z,10.25
2022-10-26T14:30:52.296Z,11.32
2022-10-26T14:33:21.682Z,8.10
2022-10-26T14:35:50.295Z,10.90
2022-10-26T14:38:26.429Z,9.98
2022-10-26T14:40:57.252Z,12.68
2022-10-26T14:43:26.910Z,11.63
2022-10-26T14:45:56.826Z,9.77
2022-10-26T14:48:30.016Z,17.88
2022-10-26T14:53:35.527Z,14.38
2022-10-26T14:56:06.772Z,8.30
2022-10-26T14:58:36.136Z,14.02
2022-10-26T15:01:18.483Z,16.35
2022-10-26T15:03:49.773Z,27.83
2022-10-26T15:06:34.326Z,12.07
2022-10-26T15:09:06.805Z,12.57
2022-10-26T15:11:36.524Z,12.57
2022-10-26T15:14:04.632Z,18.95
2022-10-26T15:16:36.097Z,16.48
2022-10-26T15:19:10.808Z,12.55
2022-10-26T15:21:41.087Z,17.45
2022-10-26T15:24:36.057Z,10.32
2022-10-26T15:27:15.757Z,14.02
2022-10-26T15:29:45.571Z,14.10
2022-10-26T15:32:29.790Z,12.40
2022-10-26T15:35:25.406Z,14.18
2022-10-26T15:37:55.665Z,18.48
2022-10-26T15:42:55.179Z,22.80
2022-10-26T15:45:24.701Z,20.60
2022-10-26T15:47:54.667Z,18.77
2022-10-26T15:50:24.976Z,16.65
2022-10-26T15:53:00.965Z,17.85
2022-10-26T15:55:32.264Z,17.10
2022-10-26T15:58:00.145Z,18.65
2022-10-26T16:00:28.583Z,13.82
2022-10-26T16:02:57.073Z,15.60
2022-10-26T16:05:25.073Z,16.40
2022-10-26T16:07:53.232Z,12.45
2022-10-26T16:10:25.841Z,12.40
2022-10-26T16:12:55.529Z,15.07
2022-10-26T16:15:25.460Z,14.73
2022-10-26T16:17:54.006Z,14.18
2022-10-26T16:20:24.395Z,12.52
2022-10-26T16:22:53.814Z,13.45
2022-10-26T16:25:24.434Z,19.48
2022-10-26T16:27:53.400Z,12.52
2022-10-26T16:30:25.905Z,11.52
2022-10-26T16:32:56.269Z,13.95
2022-10-26T16:35:24.647Z,16.17
2022-10-26T16:37:52.838Z,12.20
2022-10-26T16:40:20.868Z,17.98
2022-10-26T16:42:49.233Z,10.45
2022-10-26T16:45:17.739Z,21.38
2022-10-26T16:47:47.751Z,14.90
2022-10-26T16:50:16.598Z,9.60
2022-10-26T16:52:47.409Z,9.55
2022-10-26T16:55:15.606Z,9.95
2022-10-26T16:57:43.495Z,11.77
2022-10-26T17:00:12.311Z,12.68
2022-10-26T17:02:41.059Z,14.13
2022-10-26T17:05:10.847Z,10.38
2022-10-26T17:07:38.871Z,12.20
2022-10-26T17:10:10.119Z,12.32
2022-10-26T17:12:37.981Z,12.02
2022-10-26T17:15:09.653Z,14.27
2022-10-26T17:17:37.810Z,14.32
2022-10-26T17:20:07.171Z,8.50
2022-10-26T17:22:36.384Z,10.63
2022-10-26T17:25:04.585Z,10.48
2022-10-26T17:27:33.530Z,11.13
2022-10-26T17:30:02.852Z,14.93
2022-10-26T17:32:32.150Z,10.88
2022-10-26T17:35:02.335Z,11.95
2022-10-26T17:37:30.766Z,10.65
2022-10-26T17:40:00.422Z,12.65
2022-10-26T17:42:28.534Z,12.65
2022-10-26T17:44:56.614Z,10.43
2022-10-26T17:47:24.576Z,9.13
2022-10-26T17:49:52.532Z,7.93
2022-10-26T17:52:20.614Z,12.93
2022-10-26T17:54:48.505Z,13.10
2022-10-26T17:57:17.808Z,8.18
2022-10-26T17:59:45.780Z,8.23
2022-10-26T18:02:14.177Z,11.85
2022-10-26T18:04:42.399Z,13.07
2022-10-26T18:07:10.354Z,9.02
2022-10-26T18:09:38.413Z,15.73
2022-10-26T18:12:07.507Z,9.15
2022-10-26T18:14:37.214Z,9.57
2022-10-26T18:17:05.304Z,11.38
2022-10-26T18:19:34.090Z,12.43
2022-10-26T18:22:02.866Z,12.85
2022-10-26T18:24:31.078Z,11.50
2022-10-26T18:26:59.452Z,12.38
2022-10-26T18:29:27.486Z,11.73
2022-10-26T18:31:56.951Z,11.15
2022-10-26T18:34:25.150Z,11.88
2022-10-26T18:36:54.485Z,11.95
2022-10-26T18:39:22.469Z,14.05
2022-10-26T18:41:50.832Z,13.45
2022-10-26T18:44:19.755Z,10.13
2022-10-26T18:46:51.880Z,17.73
2022-10-26T18:49:21.427Z,10.05
2022-10-26T18:51:49.496Z,10.82
2022-10-26T18:54:17.426Z,13.30
2022-10-26T18:56:45.466Z,12.77
2022-10-26T18:59:13.698Z,12.35
2022-10-26T19:01:42.421Z,13.82
2022-10-26T19:04:11.601Z,15.70
2022-10-26T19:06:45.106Z,12.15
2022-10-26T19:11:42.382Z,7.70
2022-10-26T19:14:10.387Z,15.02
2022-10-26T19:16:47.454Z,12.95
2022-10-26T19:19:17.059Z,10.07
2022-10-26T19:21:47.258Z,14.95
2022-10-26T19:24:18.041Z,17.40
2022-10-26T19:26:47.162Z,21.30
2022-10-26T19:29:16.862Z,14.13
2022-10-26T19:31:46.421Z,18.30
2022-10-26T19:34:16.540Z,15.68
2022-10-26T19:36:47.293Z,11.52
2022-10-26T19:39:16.773Z,15.55
2022-10-26T19:41:46.202Z,10.45
2022-10-26T19:44:15.448Z,13.55
2022-10-26T19:46:44.275Z,19.63
2022-10-26T19:49:13.507Z,18.25
2022-10-26T19:51:41.580Z,14.55
2022-10-26T19:54:10.854Z,17.70
2022-10-26T19:56:39.521Z,13.52
2022-10-26T19:59:09.376Z,13.10
2022-10-26T20:01:37.648Z,10.70
2022-10-26T20:04:06.343Z,12.80
2022-10-26T20:06:36.755Z,10.95
2022-10-26T20:09:05.898Z,14.05
2022-10-26T20:11:38.107Z,18.02
2022-10-26T20:14:07.629Z,13.15
2022-10-26T20:16:35.816Z,16.20
2022-10-26T20:19:05.218Z,9.60
2022-10-26T20:21:33.774Z,14.07
2022-10-26T20:24:02.474Z,16.60
2022-10-26T20:26:31.886Z,15.35
2022-10-26T20:29:04.226Z,22.30
2022-10-26T20:31:32.721Z,18.50
2022-10-26T20:34:00.758Z,13.07
2022-10-26T20:36:28.661Z,12.00
2022-10-26T20:38:58.023Z,10.48
2022-10-26T20:41:27.211Z,15.23
2022-10-26T20:43:57.988Z,11.70
2022-10-26T20:46:29.127Z,11.23
2022-10-26T20:48:57.738Z,15.45
2022-10-26T20:51:47.601Z,12.88
2022-10-26T20:54:30.300Z,16.58
2022-10-26T20:57:01.773Z,17.02
2022-10-26T20:59:36.728Z,14.70
2022-10-26T21:02:06.415Z,13.95
2022-10-26T21:04:34.472Z,19.38
2022-10-26T21:07:02.661Z,14.48
2022-10-26T21:09:32.938Z,13.88
2022-10-26T21:12:04.650Z,15.32
2022-10-26T21:14:35.821Z,15.48
2022-10-26T21:17:03.642Z,17.45
2022-10-26T21:19:32.955Z,12.23
2022-10-26T21:22:01.416Z,15.13
2022-10-26T21:24:29.785Z,15.20
2022-10-26T21:26:57.751Z,17.45
2022-10-26T21:29:25.670Z,13.52
2022-10-26T21:31:53.548Z,21.88
2022-10-26T21:34:21.395Z,18.00
2022-10-26T21:36:50.567Z,15.82
2022-10-26T21:39:18.445Z,19.30
2022-10-26T21:41:46.303Z,17.48
2022-10-26T21:44:25.982Z,12.50
2022-10-26T21:47:02.027Z,15.75
2022-10-26T21:49:29.917Z,16.50
2022-10-26T21:51:59.159Z,19.30
2022-10-26T21:54:27.149Z,20.77
2022-10-26T21:56:55.137Z,16.25
2022-10-26T21:59:23.012Z,20.92
2022-10-26T22:01:51.086Z,14.02
2022-10-26T22:04:19.039Z,20.60
2022-10-26T22:06:46.870Z,15.80
2022-10-26T22:09:16.105Z,16.80
2022-10-26T22:11:43.995Z,13.98
2022-10-26T22:14:13.589Z,20.25
2022-10-26T22:16:42.195Z,20.15
2022-10-26T22:19:10.635Z,19.45
2022-10-26T22:21:40.648Z,17.13
2022-10-26T22:24:09.712Z,13.65
2022-10-26T22:26:39.462Z,11.38
2022-10-26T22:29:07.521Z,16.65
2022-10-26T22:31:38.211Z,17.08
2022-10-26T22:34:08.510Z,14.45
2022-10-26T22:36:36.650Z,13.73
2022-10-26T22:39:04.814Z,15.95
2022-10-26T22:41:32.872Z,19.58
2022-10-26T22:44:02.059Z,15.75
2022-10-26T22:46:30.297Z,18.35
2022-10-26T22:48:59.895Z,15.63
2022-10-26T22:51:29.478Z,14.90
2022-10-26T22:53:59.174Z,18.67
2022-10-26T22:56:28.462Z,11.23
2022-10-26T22:58:56.770Z,16.70
2022-10-26T23:01:28.576Z,11.20
2022-10-26T23:03:57.103Z,16.17
2022-10-26T23:06:26.965Z,18.00
2022-10-26T23:08:55.174Z,17.70
2022-10-26T23:11:24.840Z,21.20
2022-10-26T23:13:54.063Z,18.80
2022-10-26T23:16:22.524Z,11.30
2022-10-26T23:18:53.228Z,15.18
2022-10-26T23:21:22.197Z,10.80
2022-10-26T23:23:50.378Z,10.65
2022-10-26T23:26:20.987Z,10.88
2022-10-26T23:28:49.831Z,14.45
2022-10-26T23:31:19.600Z,13.98
2022-10-26T23:33:47.992Z,11.73
2022-10-26T23:36:17.244Z,16.23
2022-10-26T23:38:45.519Z,11.82
2022-10-26T23:41:13.824Z,17.52
2022-10-26T23:43:41.753Z,9.13
2022-10-26T23:46:09.637Z,17.45
2022-10-26T23:48:37.632Z,13.80
2022-10-26T23:51:05.902Z,16.45
2022-10-26T23:53:35.441Z,13.70
2022-10-26T23:56:03.411Z,21.60
2022-10-26T23:58:31.274Z,13.63
